Terminal Aerodrome Forecast
Issued by NWS

Home | Current Version | Previous Version | Text Only | Print | Product List | Glossary On
Versions: 1 2 3 4 5 6 7 8 9 10 11 12 13 14
000
FTUS41 KILN 210547
TAFLCK
TAF
KLCK 210547Z 2106/2206 21003KT P6SM VCSH BKN035
     FM210900 25003KT 5SM BR SCT025
     FM211300 35005KT P6SM -SHRA VCTS SCT025CB BKN035
     FM211600 33005KT P6SM BKN035
     FM220000 VRB03KT P6SM SCT035=

USA.gov is the U.S. government's official web portal to all federal, state and local government web resources and services.